Time;durP1;ratioP1;P1;durP2;ratioP2;P2;SDS_P1;SDS_P2;PMS_P1;PMS_P2;Temp;Humidity;BMP_temperature;BMP_pressure;BME280_temperature;BME280_humidity;BME280_pressure;Samples;Min_cycle;Max_cycle;Signal;HPM_P1;HPM_P2
2021/09/28 00:01:55;;;;;;;2.85;1.48;;;17.00;99.90;;;;;;4894751;29;20045;-82
2021/09/28 00:04:22;;;;;;;2.78;1.25;;;17.00;99.90;;;;;;4893857;29;20499;-80
2021/09/28 00:06:51;;;;;;;2.85;1.25;;;17.00;99.90;;;;;;4894348;29;20144;-81
2021/09/28 00:09:18;;;;;;;3.10;0.95;;;16.90;99.90;;;;;;4893496;29;20693;-79
2021/09/28 00:11:49;;;;;;;2.95;0.82;;;16.90;99.90;;;;;;4893787;29;20172;-80
2021/09/28 00:14:18;;;;;;;2.75;0.80;;;16.90;99.90;;;;;;4893857;29;20049;-79
2021/09/28 00:16:45;;;;;;;1.27;0.68;;;16.90;99.90;;;;;;4894230;29;20052;-81
2021/09/28 00:19:12;;;;;;;1.90;0.80;;;16.80;99.90;;;;;;4893498;29;20151;-77
2021/09/28 00:21:39;;;;;;;3.42;0.68;;;16.80;99.90;;;;;;4894308;29;20562;-80
2021/09/28 00:24:08;;;;;;;1.15;0.50;;;16.80;99.90;;;;;;4893208;29;20048;-80
2021/09/28 00:26:35;;;;;;;2.13;0.50;;;16.80;99.90;;;;;;4893297;29;20143;-77
2021/09/28 00:29:02;;;;;;;1.38;0.60;;;16.80;99.90;;;;;;4893419;29;20054;-78
2021/09/28 00:31:29;;;;;;;1.25;0.60;;;16.70;99.90;;;;;;4893508;29;20072;-80
2021/09/28 00:33:56;;;;;;;1.67;0.60;;;16.60;99.90;;;;;;4893659;29;20054;-80
2021/09/28 00:36:24;;;;;;;2.00;0.63;;;16.60;99.90;;;;;;4893809;29;20075;-78
2021/09/28 00:38:51;;;;;;;1.23;0.57;;;16.60;99.90;;;;;;4892937;29;20059;-81
2021/09/28 00:41:20;;;;;;;5.38;0.52;;;16.50;99.90;;;;;;4893702;29;20144;-78
2021/09/28 00:43:50;;;;;;;2.00;0.60;;;16.40;99.90;;;;;;4893505;29;20052;-79
2021/09/28 00:46:18;;;;;;;0.95;0.50;;;16.40;99.90;;;;;;4893131;29;20559;-78
2021/09/28 00:48:46;;;;;;;1.17;0.50;;;16.40;99.90;;;;;;4893808;29;20131;-81
2021/09/28 00:51:14;;;;;;;0.98;0.38;;;16.30;99.90;;;;;;4893351;29;20056;-78
2021/09/28 00:53:43;;;;;;;0.90;0.50;;;16.20;99.90;;;;;;4893882;29;20049;-81
2021/09/28 00:56:15;;;;;;;2.25;0.63;;;16.20;99.90;;;;;;4893711;29;20151;-81
2021/09/28 00:58:44;;;;;;;1.20;0.52;;;16.10;99.90;;;;;;4894500;29;20057;-80
2021/09/28 01:01:13;;;;;;;0.95;0.50;;;16.10;99.90;;;;;;4895785;29;20597;-78
2021/09/28 01:03:40;;;;;;;1.38;0.57;;;16.00;99.90;;;;;;4895115;29;20128;-80
2021/09/28 01:06:08;;;;;;;2.22;0.60;;;16.00;99.90;;;;;;4895791;29;20106;-80
2021/09/28 01:08:35;;;;;;;2.78;0.65;;;15.90;99.90;;;;;;4897304;29;20059;-79
2021/09/28 01:11:03;;;;;;;1.50;0.60;;;15.70;99.90;;;;;;4898236;29;20053;-78
2021/09/28 01:13:30;;;;;;;1.30;0.60;;;15.70;99.90;;;;;;4896772;29;20045;-80
2021/09/28 01:16:11;;;;;;;1.65;0.60;;;15.60;99.90;;;;;;4897038;29;20554;-80
2021/09/28 01:18:41;;;;;;;2.20;0.95;;;15.60;99.90;;;;;;4897579;29;20291;-78
2021/09/28 01:21:12;;;;;;;2.47;0.77;;;15.50;99.90;;;;;;4896095;29;20053;-80
2021/09/28 01:23:44;;;;;;;1.60;0.70;;;15.40;99.90;;;;;;4897882;29;20157;-80
2021/09/28 01:26:14;;;;;;;1.23;0.40;;;15.30;99.90;;;;;;4898333;29;20055;-79
2021/09/28 01:28:41;;;;;;;3.80;1.17;;;15.20;99.90;;;;;;4898110;29;20105;-80
2021/09/28 01:31:08;;;;;;;2.25;0.70;;;15.20;99.90;;;;;;4896601;29;20143;-79
2021/09/28 01:33:35;;;;;;;1.48;0.60;;;15.10;99.90;;;;;;4896423;29;20139;-80
2021/09/28 01:36:03;;;;;;;1.38;0.70;;;15.00;99.90;;;;;;4895979;29;20052;-81
2021/09/28 01:38:31;;;;;;;1.40;0.60;;;15.00;99.90;;;;;;4895675;29;20407;-80
2021/09/28 01:40:59;;;;;;;1.67;0.57;;;14.80;99.90;;;;;;4896248;29;20056;-80
2021/09/28 01:43:26;;;;;;;1.20;0.60;;;14.80;99.90;;;;;;4896024;29;20059;-79
2021/09/28 01:45:56;;;;;;;1.80;0.70;;;14.70;99.90;;;;;;4896712;29;20145;-80
2021/09/28 01:48:25;;;;;;;2.13;0.90;;;14.60;99.90;;;;;;4896345;29;20045;-78
2021/09/28 01:50:52;;;;;;;1.80;0.63;;;14.60;99.90;;;;;;4896141;29;20147;-79
2021/09/28 01:53:19;;;;;;;1.90;0.70;;;14.50;99.90;;;;;;4897452;29;20048;-78
2021/09/28 01:55:48;;;;;;;1.73;0.70;;;14.40;99.90;;;;;;4896621;29;20131;-81
2021/09/28 01:58:17;;;;;;;2.17;0.50;;;14.40;99.90;;;;;;4896524;29;20127;-80
2021/09/28 02:00:45;;;;;;;2.28;0.70;;;14.40;99.90;;;;;;4896671;29;20063;-79
2021/09/28 02:03:12;;;;;;;0.95;0.50;;;14.30;99.90;;;;;;4895969;29;20507;-79
2021/09/28 02:05:40;;;;;;;1.88;0.75;;;14.30;99.90;;;;;;4896308;29;20055;-80
2021/09/28 02:08:08;;;;;;;2.97;0.70;;;14.30;99.90;;;;;;4895515;29;20412;-78
2021/09/28 02:10:35;;;;;;;2.50;0.60;;;14.30;99.90;;;;;;4895865;29;20578;-79
2021/09/28 02:13:05;;;;;;;1.70;0.70;;;14.40;99.90;;;;;;4895699;29;20060;-78
2021/09/28 02:15:32;;;;;;;1.85;0.77;;;14.40;99.90;;;;;;4895587;29;20411;-78
2021/09/28 02:18:01;;;;;;;1.88;0.73;;;14.40;99.90;;;;;;4895151;29;20148;-79
2021/09/28 02:20:28;;;;;;;2.00;0.70;;;14.40;99.90;;;;;;4896426;29;20055;-79
2021/09/28 02:22:55;;;;;;;1.73;0.63;;;14.40;99.90;;;;;;4895641;29;20051;-79
2021/09/28 02:25:23;;;;;;;2.22;0.70;;;14.40;99.90;;;;;;4895875;29;20517;-81
2021/09/28 02:27:51;;;;;;;1.92;0.77;;;14.40;99.90;;;;;;4896004;29;20057;-80
2021/09/28 02:30:20;;;;;;;2.90;0.70;;;14.40;99.90;;;;;;4895763;29;20052;-81
2021/09/28 02:32:47;;;;;;;1.55;0.68;;;14.40;99.90;;;;;;4894801;29;20140;-79
2021/09/28 02:35:14;;;;;;;2.92;0.80;;;14.50;99.90;;;;;;4895754;29;20128;-79
2021/09/28 02:37:41;;;;;;;1.73;0.50;;;14.50;99.90;;;;;;4895428;29;20045;-79
2021/09/28 02:40:11;;;;;;;1.40;0.57;;;14.50;99.90;;;;;;4895060;29;20143;-80
2021/09/28 02:42:38;;;;;;;3.80;0.80;;;14.50;99.90;;;;;;4891053;29;20084;-80
2021/09/28 02:45:07;;;;;;;4.25;0.90;;;14.60;99.90;;;;;;4885430;29;20052;-78
2021/09/28 02:47:35;;;;;;;4.50;0.90;;;14.60;99.90;;;;;;4888968;29;20047;-79
2021/09/28 02:50:03;;;;;;;3.97;0.90;;;14.60;99.90;;;;;;4895387;29;20135;-79
2021/09/28 02:52:30;;;;;;;2.05;0.90;;;14.60;99.90;;;;;;4894919;29;20080;-78
2021/09/28 02:54:58;;;;;;;2.90;0.90;;;14.70;99.90;;;;;;4894914;29;20139;-81
2021/09/28 02:57:25;;;;;;;4.38;0.90;;;14.70;99.90;;;;;;4895012;29;20053;-80
2021/09/28 02:59:53;;;;;;;3.90;0.90;;;14.70;99.90;;;;;;4894627;29;20148;-81
2021/09/28 03:02:20;;;;;;;4.32;1.10;;;14.60;99.90;;;;;;4893489;29;20048;-78
2021/09/28 03:04:48;;;;;;;2.33;0.73;;;14.60;99.90;;;;;;4892542;29;20055;-80
2021/09/28 03:07:15;;;;;;;3.78;0.70;;;14.60;99.90;;;;;;4893263;29;20057;-80
2021/09/28 03:09:43;;;;;;;3.65;1.08;;;14.60;99.90;;;;;;4891474;29;20147;-81
2021/09/28 03:12:10;;;;;;;3.22;0.90;;;14.60;99.90;;;;;;4891795;29;20056;-81
2021/09/28 03:14:37;;;;;;;3.63;0.98;;;14.60;99.90;;;;;;4891306;29;20500;-80
2021/09/28 03:17:05;;;;;;;3.10;0.80;;;14.70;99.90;;;;;;4891186;29;20052;-79
2021/09/28 03:19:32;;;;;;;3.90;0.93;;;14.70;99.90;;;;;;4891256;29;20484;-78
2021/09/28 03:22:01;;;;;;;4.65;1.10;;;14.70;99.90;;;;;;4892018;29;20767;-78
2021/09/28 03:24:28;;;;;;;3.58;0.82;;;14.70;99.90;;;;;;4891903;29;20052;-77
2021/09/28 03:26:55;;;;;;;4.68;0.95;;;14.70;99.90;;;;;;4891060;29;20517;-79
2021/09/28 03:29:22;;;;;;;4.13;0.85;;;14.60;99.90;;;;;;4891094;29;20388;-81
2021/09/28 03:31:49;;;;;;;3.70;0.90;;;14.60;99.90;;;;;;4891379;29;20497;-81
2021/09/28 03:34:17;;;;;;;4.97;1.02;;;14.60;99.90;;;;;;4890974;29;20507;-80
2021/09/28 03:36:44;;;;;;;3.55;0.80;;;14.60;99.90;;;;;;4891424;29;20052;-77
2021/09/28 03:39:12;;;;;;;2.70;1.15;;;14.50;99.90;;;;;;4891226;29;20226;-81
2021/09/28 03:41:39;;;;;;;3.03;1.05;;;14.60;99.90;;;;;;4891529;29;20057;-78
2021/09/28 03:44:06;;;;;;;2.95;0.90;;;14.60;99.90;;;;;;4889953;29;20049;-80
2021/09/28 03:46:33;;;;;;;2.72;1.05;;;14.60;99.90;;;;;;4891498;29;20131;-79
2021/09/28 03:49:00;;;;;;;3.20;0.98;;;14.60;99.90;;;;;;4891608;29;20045;-80
2021/09/28 03:51:27;;;;;;;2.10;0.90;;;14.70;99.90;;;;;;4890976;29;20048;-78
2021/09/28 03:53:54;;;;;;;3.13;1.00;;;14.70;99.90;;;;;;4891120;29;20085;-79
2021/09/28 03:56:23;;;;;;;3.30;0.90;;;14.70;99.90;;;;;;4890704;29;20047;-81
2021/09/28 03:58:50;;;;;;;2.38;1.13;;;14.70;99.90;;;;;;4890875;29;20051;-80
2021/09/28 04:01:19;;;;;;;3.20;1.00;;;14.70;99.90;;;;;;4892584;29;20144;-80
2021/09/28 04:03:46;;;;;;;3.83;0.90;;;14.70;99.90;;;;;;4894109;29;20127;-80
2021/09/28 04:06:13;;;;;;;3.60;0.95;;;14.70;99.90;;;;;;4893525;29;20147;-80
2021/09/28 04:08:41;;;;;;;3.75;0.90;;;14.70;99.90;;;;;;4894610;29;20049;-79
2021/09/28 04:11:08;;;;;;;4.50;0.93;;;14.70;99.90;;;;;;4893918;29;20047;-79
2021/09/28 04:13:36;;;;;;;4.35;1.05;;;14.70;99.90;;;;;;4892857;29;20067;-81
2021/09/28 04:16:07;;;;;;;4.25;1.40;;;14.70;99.90;;;;;;4894386;29;20044;-81
2021/09/28 04:18:34;;;;;;;5.85;1.00;;;14.70;99.90;;;;;;4894725;29;20059;-80
2021/09/28 04:21:02;;;;;;;2.83;1.00;;;14.70;99.90;;;;;;4894584;29;20182;-80
2021/09/28 04:23:29;;;;;;;4.97;1.35;;;14.80;99.90;;;;;;4896775;29;20052;-79
2021/09/28 04:25:56;;;;;;;3.70;0.98;;;14.70;99.90;;;;;;4898009;29;20132;-80
2021/09/28 04:28:23;;;;;;;3.38;1.00;;;14.70;99.90;;;;;;4897937;29;20092;-80
2021/09/28 04:30:51;;;;;;;3.58;1.00;;;14.70;99.90;;;;;;4898166;29;20107;-79
2021/09/28 04:33:18;;;;;;;3.65;1.00;;;14.70;99.90;;;;;;4897918;29;20049;-80
2021/09/28 04:35:45;;;;;;;6.43;0.98;;;14.70;99.90;;;;;;4897975;29;20135;-80
2021/09/28 04:38:13;;;;;;;2.88;0.90;;;14.70;99.90;;;;;;4898102;29;20064;-80
2021/09/28 04:40:40;;;;;;;3.67;1.05;;;14.70;99.90;;;;;;4901736;29;20128;-79
2021/09/28 04:43:07;;;;;;;2.75;1.00;;;14.60;99.90;;;;;;4901915;29;20084;-80
2021/09/28 04:45:34;;;;;;;4.55;1.05;;;14.60;99.90;;;;;;4901850;29;20127;-80
2021/09/28 04:48:02;;;;;;;3.10;0.90;;;14.60;99.90;;;;;;4903232;29;20112;-79
2021/09/28 04:50:29;;;;;;;4.35;1.08;;;14.60;99.90;;;;;;4902472;29;20044;-80
2021/09/28 04:52:56;;;;;;;3.88;1.10;;;14.60;99.90;;;;;;4901375;29;20574;-80
2021/09/28 04:55:23;;;;;;;3.92;1.08;;;14.50;99.90;;;;;;4902011;29;20143;-80
2021/09/28 04:57:50;;;;;;;3.88;1.10;;;14.50;99.90;;;;;;4901606;29;20048;-79
2021/09/28 05:00:18;;;;;;;3.10;1.15;;;14.50;99.90;;;;;;4901580;29;20116;-81
2021/09/28 05:02:45;;;;;;;3.03;1.00;;;14.50;99.90;;;;;;4901365;29;20472;-80
2021/09/28 05:05:14;;;;;;;3.15;1.02;;;14.40;99.90;;;;;;4901412;29;20558;-79
2021/09/28 05:07:41;;;;;;;3.80;1.10;;;14.40;99.90;;;;;;4901439;29;20131;-80
2021/09/28 05:10:09;;;;;;;3.63;1.17;;;14.40;99.90;;;;;;4901047;29;20139;-80
2021/09/28 05:12:36;;;;;;;3.40;1.00;;;14.40;99.90;;;;;;4901144;29;20491;-79
2021/09/28 05:15:03;;;;;;;2.85;0.90;;;14.40;99.90;;;;;;4901437;29;20083;-79
2021/09/28 05:17:30;;;;;;;2.38;0.90;;;14.40;99.90;;;;;;4900871;29;20144;-77
2021/09/28 05:19:58;;;;;;;3.72;1.00;;;14.40;99.90;;;;;;4901203;29;20470;-79
2021/09/28 05:22:26;;;;;;;2.92;1.17;;;14.40;99.90;;;;;;4901048;29;20064;-79
2021/09/28 05:24:53;;;;;;;3.08;1.02;;;14.30;99.90;;;;;;4900951;29;20059;-80
2021/09/28 05:27:20;;;;;;;3.13;1.10;;;14.30;99.90;;;;;;4900948;29;20139;-79
2021/09/28 05:29:47;;;;;;;3.20;1.13;;;14.30;99.90;;;;;;4900959;29;20045;-80
2021/09/28 05:32:14;;;;;;;2.50;0.95;;;14.20;99.90;;;;;;4900937;29;20136;-80
2021/09/28 05:34:41;;;;;;;3.05;1.20;;;14.20;99.90;;;;;;4901079;29;20055;-80
2021/09/28 05:37:08;;;;;;;3.50;1.20;;;14.20;99.90;;;;;;4900782;29;20135;-79
2021/09/28 05:39:37;;;;;;;3.15;1.10;;;14.20;99.90;;;;;;4900796;29;20140;-81
2021/09/28 05:42:05;;;;;;;2.08;0.90;;;14.10;99.90;;;;;;4900907;29;20080;-80
2021/09/28 05:44:32;;;;;;;2.83;1.20;;;14.10;99.90;;;;;;4900773;29;20135;-80
2021/09/28 05:46:59;;;;;;;4.18;1.05;;;14.10;99.90;;;;;;4900917;29;20107;-79
2021/09/28 05:49:26;;;;;;;3.70;1.08;;;14.00;99.90;;;;;;4900764;29;20049;-79
2021/09/28 05:51:57;;;;;;;4.35;1.38;;;14.00;99.90;;;;;;4900195;29;20080;-80
2021/09/28 05:54:24;;;;;;;3.42;1.50;;;14.10;99.90;;;;;;4900190;29;20064;-80
2021/09/28 05:56:54;;;;;;;3.67;1.30;;;14.10;99.90;;;;;;4900286;29;20052;-79
2021/09/28 05:59:22;;;;;;;3.60;1.38;;;14.10;99.90;;;;;;4900358;29;20503;-79
2021/09/28 06:01:49;;;;;;;3.17;1.30;;;14.10;99.90;;;;;;4900677;29;20136;-80
2021/09/28 06:04:17;;;;;;;3.92;1.40;;;14.10;99.90;;;;;;4900455;29;20410;-80
2021/09/28 06:06:44;;;;;;;3.42;1.40;;;14.20;99.90;;;;;;4900198;29;20511;-80
2021/09/28 06:09:11;;;;;;;4.35;1.08;;;14.10;99.90;;;;;;4900375;29;20128;-80
2021/09/28 06:11:40;;;;;;;2.70;1.20;;;14.20;99.90;;;;;;4900268;29;20053;-80
2021/09/28 06:14:09;;;;;;;2.53;1.20;;;14.20;99.90;;;;;;4900010;29;20135;-79
2021/09/28 06:16:36;;;;;;;4.47;1.40;;;14.20;99.90;;;;;;4900174;29;20052;-79
2021/09/28 06:19:03;;;;;;;3.78;1.30;;;14.20;99.90;;;;;;4900169;29;20053;-79
2021/09/28 06:21:30;;;;;;;3.45;1.33;;;14.20;99.90;;;;;;4900147;29;20084;-80
2021/09/28 06:23:57;;;;;;;2.88;1.30;;;14.20;99.90;;;;;;4900083;29;20399;-79
2021/09/28 06:26:24;;;;;;;3.75;1.60;;;14.20;99.90;;;;;;4900267;29;20312;-79
2021/09/28 06:28:51;;;;;;;4.65;1.67;;;14.20;99.90;;;;;;4900143;29;20570;-80
2021/09/28 06:31:20;;;;;;;4.03;1.40;;;14.20;99.90;;;;;;4900196;29;20175;-80
2021/09/28 06:33:47;;;;;;;4.45;1.50;;;14.20;99.90;;;;;;4900159;29;20052;-80
2021/09/28 06:38:58;;;;;;;3.75;1.23;;;14.20;99.90;;;;;;4899939;29;20126;-80
2021/09/28 06:41:27;;;;;;;3.05;1.30;;;14.20;99.90;;;;;;4900110;29;20143;-80
2021/09/28 06:43:54;;;;;;;3.38;1.20;;;14.10;99.90;;;;;;4900038;29;20056;-78
2021/09/28 06:46:23;;;;;;;3.78;1.33;;;14.10;99.90;;;;;;4899561;29;20076;-79
2021/09/28 06:48:50;;;;;;;4.68;1.48;;;14.20;99.90;;;;;;4899771;29;20132;-80
2021/09/28 06:51:17;;;;;;;4.18;1.30;;;14.20;99.90;;;;;;4900047;29;20143;-80
2021/09/28 06:53:44;;;;;;;3.25;1.15;;;14.20;99.90;;;;;;4899731;29;20151;-80
2021/09/28 06:56:12;;;;;;;3.78;1.45;;;14.30;99.90;;;;;;4899774;29;20514;-80
2021/09/28 06:58:40;;;;;;;2.95;1.33;;;14.30;99.90;;;;;;4899639;29;20075;-80
2021/09/28 07:01:07;;;;;;;3.53;1.52;;;14.30;99.90;;;;;;4899603;29;20135;-79
2021/09/28 07:03:35;;;;;;;4.75;1.40;;;14.40;99.90;;;;;;4898343;29;20134;-79
2021/09/28 07:06:03;;;;;;;5.47;2.10;;;14.40;99.90;;;;;;4899601;29;20131;-79
2021/09/28 07:08:30;;;;;;;4.70;1.70;;;14.50;99.90;;;;;;4899295;29;20048;-81
2021/09/28 07:10:57;;;;;;;4.60;1.55;;;14.60;99.90;;;;;;4899242;29;20152;-80
2021/09/28 07:13:24;;;;;;;2.80;1.40;;;14.60;99.90;;;;;;4899221;29;20147;-79
2021/09/28 07:15:51;;;;;;;6.20;2.17;;;14.50;99.90;;;;;;4899129;29;20132;-81
2021/09/28 07:18:19;;;;;;;4.28;1.70;;;14.60;99.90;;;;;;4898952;29;20087;-80
2021/09/28 07:20:47;;;;;;;3.55;1.60;;;14.60;99.90;;;;;;4899202;29;20139;-80
2021/09/28 07:23:14;;;;;;;5.07;1.70;;;14.60;99.90;;;;;;4899517;29;20422;-81
2021/09/28 07:25:41;;;;;;;6.18;2.20;;;14.70;99.90;;;;;;4899494;29;20148;-81
2021/09/28 07:28:08;;;;;;;4.30;1.65;;;14.70;99.90;;;;;;4899293;29;20140;-81
2021/09/28 07:30:36;;;;;;;4.93;1.98;;;14.80;99.90;;;;;;4898566;29;20083;-80
2021/09/28 07:33:04;;;;;;;5.88;1.98;;;14.80;99.90;;;;;;4898728;29;20527;-81
2021/09/28 07:35:31;;;;;;;5.05;2.00;;;14.80;99.90;;;;;;4897764;29;20068;-77
2021/09/28 07:38:00;;;;;;;4.90;1.90;;;14.80;99.90;;;;;;4898893;29;20049;-81
2021/09/28 07:40:28;;;;;;;5.43;1.80;;;14.90;99.90;;;;;;4898709;29;20140;-79
2021/09/28 07:42:55;;;;;;;5.28;1.58;;;14.90;99.90;;;;;;4898656;29;20514;-81
2021/09/28 07:45:22;;;;;;;6.20;1.83;;;15.00;99.90;;;;;;4898940;29;20570;-80
2021/09/28 07:47:50;;;;;;;4.90;2.15;;;15.00;99.90;;;;;;4898965;29;20084;-79
2021/09/28 07:50:18;;;;;;;5.03;1.90;;;15.10;99.90;;;;;;4898713;29;20578;-79
2021/09/28 07:52:45;;;;;;;4.70;2.10;;;15.20;99.90;;;;;;4898688;29;20112;-81
2021/09/28 07:55:14;;;;;;;4.82;2.22;;;15.30;99.90;;;;;;4898647;29;20147;-80
2021/09/28 07:57:41;;;;;;;5.75;2.30;;;15.40;99.90;;;;;;4897551;29;20127;-80
2021/09/28 08:00:11;;;;;;;6.55;2.70;;;15.50;99.90;;;;;;4898793;29;20110;-79
2021/09/28 08:02:39;;;;;;;6.93;3.00;;;15.60;99.90;;;;;;4899169;29;20395;-79
2021/09/28 08:05:07;;;;;;;6.10;2.45;;;15.70;99.90;;;;;;4898610;29;20053;-80
2021/09/28 08:07:34;;;;;;;6.20;2.80;;;15.80;99.90;;;;;;4898311;29;20534;-81
2021/09/28 08:10:01;;;;;;;7.55;4.07;;;15.90;99.90;;;;;;4898708;29;20511;-80
2021/09/28 08:12:30;;;;;;;7.03;3.50;;;16.00;99.90;;;;;;4898493;29;20123;-79
2021/09/28 08:14:57;;;;;;;7.35;2.70;;;16.10;99.90;;;;;;4898159;29;20063;-80
2021/09/28 08:17:24;;;;;;;6.40;2.53;;;16.20;99.90;;;;;;4898106;29;20143;-80
2021/09/28 08:19:52;;;;;;;5.72;2.60;;;16.20;99.90;;;;;;4900814;29;20147;-80
2021/09/28 08:22:20;;;;;;;6.45;2.53;;;16.30;99.90;;;;;;4898209;29;20080;-77
2021/09/28 08:24:50;;;;;;;7.85;2.80;;;16.30;99.90;;;;;;4897808;29;20131;-78
2021/09/28 08:30:07;;;;;;;6.07;2.25;;;16.40;99.90;;;;;;4898147;29;20075;-79
2021/09/28 08:32:35;;;;;;;7.90;2.53;;;16.40;99.90;;;;;;4898273;29;20147;-79
2021/09/28 08:35:02;;;;;;;6.35;2.42;;;16.40;99.90;;;;;;4898259;29;20143;-79
2021/09/28 08:37:29;;;;;;;4.90;2.45;;;16.40;99.90;;;;;;4898006;29;20132;-80
2021/09/28 08:39:57;;;;;;;5.88;3.38;;;16.30;99.90;;;;;;4898207;29;20144;-79
2021/09/28 08:42:25;;;;;;;5.15;2.22;;;16.30;99.90;;;;;;4898127;29;20120;-80
2021/09/28 08:44:53;;;;;;;6.45;2.53;;;16.30;99.90;;;;;;4898429;29;20143;-78
2021/09/28 08:47:35;;;;;;;4.53;2.05;;;16.30;99.90;;;;;;4898438;29;20053;-79
2021/09/28 08:50:03;;;;;;;4.78;2.50;;;16.40;99.50;;;;;;4898106;29;20140;-79
2021/09/28 08:52:31;;;;;;;4.82;2.30;;;16.50;99.00;;;;;;4898318;29;20080;-80
2021/09/28 08:54:58;;;;;;;4.60;2.22;;;16.50;98.30;;;;;;4898145;29;20052;-79
2021/09/28 08:57:25;;;;;;;6.50;2.60;;;16.50;98.10;;;;;;4897027;29;20071;-80
2021/09/28 08:59:54;;;;;;;5.80;2.30;;;16.50;98.10;;;;;;4898097;29;20486;-80
2021/09/28 09:02:21;;;;;;;6.22;2.20;;;16.50;97.90;;;;;;4897999;29;20049;-81
2021/09/28 09:05:06;;;;;;;6.63;2.50;;;16.50;98.00;;;;;;4897628;29;20579;-79
2021/09/28 09:07:33;;;;;;;6.43;2.28;;;16.60;97.80;;;;;;4897876;29;20143;-80
2021/09/28 09:10:00;;;;;;;5.75;2.50;;;16.70;97.50;;;;;;4897785;29;20058;-80
2021/09/28 09:12:33;;;;;;;5.03;2.13;;;16.70;97.40;;;;;;4897976;29;20131;-79
2021/09/28 09:15:25;;;;;;;5.35;2.20;;;16.70;97.30;;;;;;4898037;29;20056;-79
2021/09/28 09:17:54;;;;;;;5.00;1.92;;;16.60;97.00;;;;;;4897894;29;20120;-80
2021/09/28 09:20:34;;;;;;;6.15;1.90;;;16.50;96.80;;;;;;4897945;29;20388;-79
2021/09/28 09:23:25;;;;;;;8.23;2.65;;;16.50;96.80;;;;;;4897926;29;20136;-80
2021/09/28 09:26:10;;;;;;;6.97;2.47;;;16.50;97.30;;;;;;4898478;29;20053;-80
2021/09/28 09:28:39;;;;;;;5.25;2.38;;;16.40;97.40;;;;;;4901345;29;20136;-80
2021/09/28 09:31:29;;;;;;;4.95;2.30;;;16.40;97.60;;;;;;4901123;29;20140;-80
2021/09/28 09:34:08;;;;;;;5.90;2.60;;;16.40;97.60;;;;;;4901078;29;20395;-80
2021/09/28 09:36:37;;;;;;;4.30;2.10;;;16.40;97.70;;;;;;4901159;29;20056;-78
2021/09/28 09:39:09;;;;;;;6.32;2.80;;;16.50;97.70;;;;;;4901139;29;20132;-79
2021/09/28 09:41:39;;;;;;;7.68;2.78;;;16.50;97.00;;;;;;4899869;29;20093;-79
2021/09/28 09:44:09;;;;;;;5.97;2.83;;;16.50;97.10;;;;;;4900946;29;20121;-80
2021/09/28 09:46:42;;;;;;;4.80;2.22;;;16.60;97.20;;;;;;4900970;29;20048;-79
2021/09/28 09:49:10;;;;;;;6.68;2.30;;;16.70;97.30;;;;;;4900991;29;20140;-80
2021/09/28 09:51:44;;;;;;;7.53;2.50;;;16.70;97.40;;;;;;4900905;29;20140;-80
2021/09/28 09:54:12;;;;;;;8.68;2.58;;;16.80;97.30;;;;;;4896709;29;20071;-80
2021/09/28 09:56:49;;;;;;;6.43;2.20;;;16.90;97.40;;;;;;4897989;29;20143;-78
2021/09/28 09:59:18;;;;;;;6.45;2.22;;;16.90;97.60;;;;;;4898338;29;20088;-80
2021/09/28 10:01:45;;;;;;;5.65;2.13;;;16.90;97.60;;;;;;4898155;29;20089;-80
2021/09/28 10:04:15;;;;;;;5.43;2.55;;;17.00;97.60;;;;;;4901005;29;20139;-80
2021/09/28 10:06:44;;;;;;;4.93;2.10;;;17.00;97.50;;;;;;4897726;29;20094;-80
2021/09/28 10:09:15;;;;;;;4.55;2.20;;;17.10;97.60;;;;;;4897669;29;20522;-79
2021/09/28 10:11:42;;;;;;;6.78;2.90;;;17.10;97.50;;;;;;4897693;29;20053;-80
2021/09/28 10:14:30;;;;;;;7.78;2.60;;;17.20;97.10;;;;;;4897653;29;20071;-80
2021/09/28 10:16:59;;;;;;;6.05;2.55;;;17.10;96.80;;;;;;4897453;29;20484;-80
2021/09/28 10:19:45;;;;;;;5.68;2.38;;;17.10;96.80;;;;;;4896681;29;20071;-78
2021/09/28 10:22:49;;;;;;;6.88;2.35;;;17.20;96.90;;;;;;4897490;29;20109;-79
2021/09/28 10:25:39;;;;;;;;;;;17.30;96.60;;;;;;4898506;29;20053;-80
2021/09/28 10:28:40;;;;;;;4.82;1.83;;;17.40;96.30;;;;;;4897965;29;19974;-78
2021/09/28 10:31:14;;;;;;;3.85;1.60;;;17.50;96.20;;;;;;4897584;29;20112;-77
2021/09/28 10:33:54;;;;;;;3.15;1.40;;;17.60;96.00;;;;;;4897062;29;20080;-79
2021/09/28 10:36:23;;;;;;;5.38;1.80;;;17.80;95.50;;;;;;4897410;29;20052;-80
2021/09/28 10:39:01;;;;;;;4.90;1.60;;;17.90;95.30;;;;;;4897212;29;20522;-80
2021/09/28 10:41:59;;;;;;;4.18;1.73;;;18.10;95.10;;;;;;4897753;29;20048;-80
2021/09/28 10:44:51;;;;;;;5.30;1.55;;;18.20;93.90;;;;;;4897476;29;20088;-81
2021/09/28 10:47:46;;;;;;;3.88;1.52;;;18.20;93.90;;;;;;4896721;29;20494;-79
2021/09/28 10:50:32;;;;;;;3.95;1.70;;;18.30;93.70;;;;;;4897213;29;20049;-79
2021/09/28 10:53:02;;;;;;;7.20;2.08;;;18.30;93.30;;;;;;4897145;29;20056;-80
2021/09/28 10:55:39;;;;;;;4.63;1.90;;;18.40;92.50;;;;;;4896966;29;20460;-80
2021/09/28 10:58:22;;;;;;;5.60;1.75;;;18.40;92.30;;;;;;4896971;29;20059;-78
2021/09/28 11:01:14;;;;;;;3.75;1.60;;;18.40;92.60;;;;;;4897501;29;20104;-79
2021/09/28 11:04:01;;;;;;;5.78;2.05;;;18.40;92.50;;;;;;4896771;29;20112;-78
2021/09/28 11:07:06;;;;;;;4.70;1.60;;;;;;;;;;4896929;29;20136;-78
2021/09/28 11:09:50;;;;;;;5.05;1.88;;;18.40;92.60;;;;;;4896807;29;20056;-76
2021/09/28 11:12:19;;;;;;;;;;;18.40;92.80;;;;;;4896850;29;20534;-78
2021/09/28 11:14:47;;;;;;;4.85;1.80;;;18.40;92.80;;;;;;4896572;29;20014;-79
2021/09/28 11:17:18;;;;;;;4.55;1.67;;;18.40;92.60;;;;;;4896735;29;20056;-81
2021/09/28 11:19:46;;;;;;;5.82;2.00;;;18.40;92.60;;;;;;4896560;29;20064;-79
2021/09/28 11:22:23;;;;;;;3.25;1.50;;;18.40;92.20;;;;;;4896554;29;20060;-79
2021/09/28 11:24:51;;;;;;;4.20;1.70;;;18.40;92.30;;;;;;4896608;29;20057;-79
2021/09/28 11:27:20;;;;;;;6.32;1.60;;;18.40;92.60;;;;;;4896699;29;20139;-79
2021/09/28 11:29:47;;;;;;;5.03;1.50;;;18.50;92.30;;;;;;4895968;29;20059;-79
2021/09/28 11:32:15;;;;;;;3.22;1.20;;;18.60;92.60;;;;;;4897145;29;20398;-79
2021/09/28 11:34:43;;;;;;;3.58;1.58;;;18.70;92.60;;;;;;4896891;29;20056;-79
2021/09/28 11:37:11;;;;;;;4.75;1.60;;;18.80;92.30;;;;;;4896340;29;20056;-80
2021/09/28 11:39:43;;;;;;;4.13;1.50;;;18.90;91.70;;;;;;4895536;29;20088;-80
2021/09/28 11:42:12;;;;;;;2.92;1.20;;;19.10;91.60;;;;;;4896081;29;20055;-79
2021/09/28 11:44:44;;;;;;;4.30;1.40;;;19.20;91.20;;;;;;4896051;29;20053;-79
2021/09/28 11:47:17;;;;;;;3.45;1.42;;;19.30;90.10;;;;;;4899064;29;20147;-79
2021/09/28 11:50:00;;;;;;;4.10;1.33;;;19.40;89.90;;;;;;4895816;29;20086;-80
2021/09/28 11:52:28;;;;;;;3.70;1.42;;;19.50;90.10;;;;;;4895779;29;20455;-76
2021/09/28 11:54:55;;;;;;;4.80;1.42;;;19.70;90.00;;;;;;4896154;29;20063;-80
2021/09/28 11:57:23;;;;;;;2.80;1.27;;;19.70;89.50;;;;;;4895932;29;20053;-78
2021/09/28 11:59:52;;;;;;;4.20;1.50;;;19.80;88.10;;;;;;4896042;29;20091;-78
2021/09/28 12:02:22;;;;;;;4.57;1.73;;;19.90;86.90;;;;;;4895950;29;20055;-79
2021/09/28 12:08:11;;;;;;;4.65;1.30;;;19.90;85.90;;;;;;4895743;29;20373;-80
2021/09/28 12:10:41;;;;;;;4.40;1.23;;;20.00;86.50;;;;;;4896235;29;20144;-80
2021/09/28 12:13:28;;;;;;;5.05;1.60;;;20.10;86.60;;;;;;4895909;29;20135;-81
2021/09/28 12:16:05;;;;;;;3.95;1.20;;;20.20;86.30;;;;;;4896003;29;20060;-79
2021/09/28 12:18:33;;;;;;;4.93;1.55;;;20.30;85.20;;;;;;4895060;29;20143;-79
2021/09/28 12:21:26;;;;;;;2.67;1.08;;;20.40;84.70;;;;;;4895943;29;20082;-78
2021/09/28 12:24:18;;;;;;;3.45;1.33;;;20.40;83.80;;;;;;4895115;29;20064;-78
2021/09/28 12:26:46;;;;;;;3.38;1.20;;;20.60;83.50;;;;;;4895524;29;20104;-79
2021/09/28 12:29:18;;;;;;;4.18;1.50;;;20.60;82.20;;;;;;4895517;29;20056;-80
2021/09/28 12:31:47;;;;;;;2.60;1.30;;;20.70;81.40;;;;;;4895268;29;20566;-76
2021/09/28 12:34:15;;;;;;;4.55;1.30;;;20.80;80.40;;;;;;4895854;29;20062;-77
2021/09/28 12:36:42;;;;;;;3.63;1.45;;;20.80;79.60;;;;;;4895375;29;20151;-79
2021/09/28 12:39:24;;;;;;;3.20;1.30;;;20.90;78.00;;;;;;4895202;29;20084;-79
2021/09/28 12:42:07;;;;;;;3.67;1.55;;;20.90;78.30;;;;;;4895175;29;20131;-79
2021/09/28 12:44:35;;;;;;;3.40;1.67;;;20.90;78.80;;;;;;4894966;29;20052;-79
2021/09/28 12:47:31;;;;;;;4.40;1.48;;;21.00;77.60;;;;;;4895752;29;20558;-80
2021/09/28 12:50:15;;;;;;;4.63;1.67;;;21.10;77.40;;;;;;4895608;29;20063;-78
2021/09/28 12:52:42;;;;;;;4.55;1.30;;;21.20;77.20;;;;;;4894994;29;20053;-79
2021/09/28 12:55:09;;;;;;;4.15;1.20;;;21.30;77.30;;;;;;4895011;29;20056;-78
2021/09/28 12:57:36;;;;;;;4.10;1.40;;;21.50;77.50;;;;;;4894282;29;20570;-78
2021/09/28 13:00:05;;;;;;;3.75;1.38;;;21.60;76.60;;;;;;4894772;29;20578;-77
2021/09/28 13:02:34;;;;;;;4.68;1.65;;;21.70;75.50;;;;;;4898317;29;20597;-79
2021/09/28 13:05:12;;;;;;;2.63;1.10;;;21.80;75.60;;;;;;4898607;29;20088;-75
2021/09/28 13:07:40;;;;;;;3.10;1.30;;;22.00;75.40;;;;;;4898555;29;20056;-77
2021/09/28 13:10:08;;;;;;;5.38;1.67;;;22.10;74.00;;;;;;4897766;29;20095;-78
2021/09/28 13:12:35;;;;;;;5.30;2.45;;;22.20;73.90;;;;;;4898514;29;20057;-77